Cameron Station, Virginia
Current Conditions -  °F | °C
As of 4:52 AM on Wednesday 26 Nov 2014 (Local Time) from KDCA Reporting Station
Light Rain Light Rain  
Wind Chill: 44°   Ceiling: 5000
Heat Index: 47°   Visibility: 7mi
Dew Point: 39°   Wind: 7mph
Humidity: 74%   Direction: 70°ENE
Pressure: 30.07"   Gusts: NA
Location:  38.8134°N, 77.1153°W
Report Text: KDCA 260952Z 07006KT 7SM -RA OVC050 08/04 A3007 RMK AO2 SLP181 P0005 T00830039
Loading
Personal Weather Stations






























Interactive Weather Map New forecast layout! Learn more

10-Day Weather Forecast

Advertisements
Track Severe Weather on mobile